Time;durP1;ratioP1;P1;durP2;ratioP2;P2;SDS_P1;SDS_P2;PMS_P1;PMS_P2;Temp;Humidity;BMP_temperature;BMP_pressure;BME280_temperature;BME280_humidity;BME280_pressure;Samples;Min_cycle;Max_cycle;Signal;HPM_P1;HPM_P2
2022/09/24 00:01:37;;;;;;;27.53;15.73;;;;;;;10.80;81.44;100565.67;3360591;85;99168;-88
2022/09/24 00:06:44;;;;;;;27.60;16.23;;;;;;;10.79;81.42;100557.81;3365559;86;32485;-89
2022/09/24 00:11:46;;;;;;;25.63;15.20;;;;;;;10.76;81.50;100553.84;3336682;87;99000;-88
2022/09/24 00:16:47;;;;;;;25.77;15.70;;;;;;;10.77;81.62;100552.67;3366489;85;32229;-89
2022/09/24 00:21:48;;;;;;;27.90;15.40;;;;;;;10.78;81.49;100548.75;3372979;85;98887;-89
2022/09/24 00:26:48;;;;;;;25.30;14.70;;;;;;;10.79;81.60;100551.70;3353874;86;32250;-89
2022/09/24 00:31:52;;;;;;;25.30;15.00;;;;;;;10.79;81.54;100550.33;3351836;85;99325;-88
2022/09/24 00:36:53;;;;;;;28.10;15.95;;;;;;;10.81;81.54;100543.88;3377671;85;31369;-89
2022/09/24 00:41:54;;;;;;;29.97;17.07;;;;;;;10.82;81.69;100536.40;3354765;85;98942;-88
2022/09/24 00:46:55;;;;;;;28.27;16.33;;;;;;;10.78;81.68;100531.42;3371546;86;32328;-88
2022/09/24 00:51:56;;;;;;;27.97;16.67;;;;;;;10.74;81.84;100531.39;3369339;85;98922;-88
2022/09/24 00:57:00;;;;;;;30.97;17.47;;;;;;;10.73;81.99;100524.87;3366404;85;32632;-88
2022/09/24 01:02:04;;;;;;;26.03;15.43;;;;;;;10.70;82.02;100516.02;3367477;85;98865;-88
2022/09/24 01:07:04;;;;;;;29.98;16.82;;;;;;;10.71;82.07;100515.64;3352371;85;33264;-88
2022/09/24 01:12:29;;;;;;;31.70;17.53;;;;;;;10.70;82.11;100517.38;3342460;85;98887;-89
2022/09/24 01:17:54;;;;;;;29.18;17.12;;;;;;;10.69;82.30;100500.67;3368561;85;33256;-88
2022/09/24 01:23:25;;;;;;;26.90;15.72;;;;;;;10.64;82.29;100497.64;3352323;85;99043;-88
2022/09/24 01:28:34;;;;;;;26.87;16.20;;;;;;;10.64;82.49;100491.37;3347624;87;34460;-89
2022/09/24 01:33:36;;;;;;;35.33;18.82;;;;;;;10.64;82.48;100491.37;3355849;85;99401;-88
2022/09/24 01:38:41;;;;;;;29.20;16.87;;;;;;;10.62;82.43;100492.30;3339326;86;32429;-87
2022/09/24 01:43:43;;;;;;;29.92;16.50;;;;;;;10.64;82.50;100491.37;3326228;87;99339;-88
2022/09/24 01:48:44;;;;;;;34.03;17.07;;;;;;;10.62;82.52;100479.34;3350088;86;33334;-88
2022/09/24 01:54:12;;;;;;;31.15;17.42;;;;;;;10.62;82.52;100481.30;3350237;87;99147;-88
2022/09/24 01:59:22;;;;;;;26.95;16.17;;;;;;;10.63;82.70;100487.81;3341871;86;33862;-88
2022/09/24 02:04:26;;;;;;;26.75;15.65;;;;;;;10.63;82.85;100482.91;3349879;86;98897;-88
2022/09/24 02:09:37;;;;;;;30.97;18.00;;;;;;;10.63;82.82;100477.41;3343356;86;33344;-88
2022/09/24 02:14:49;;;;;;;31.10;17.30;;;;;;;10.61;82.94;100477.77;3350191;86;98709;-88
2022/09/24 02:19:53;;;;;;;28.77;17.60;;;;;;;10.59;83.02;100469.68;3356038;86;33338;-88
2022/09/24 02:24:58;;;;;;;35.48;21.02;;;;;;;10.59;83.08;100470.48;3347979;87;98989;-89
2022/09/24 02:30:00;;;;;;;33.05;20.60;;;;;;;10.59;83.26;100466.36;3351920;86;33248;-89
2022/09/24 02:35:05;;;;;;;32.03;20.85;;;;;;;10.59;83.25;100469.11;3344808;85;98955;-88
2022/09/24 02:40:11;;;;;;;32.40;20.55;;;;;;;10.58;83.29;100460.62;3361909;86;33841;-88
2022/09/24 02:45:12;;;;;;;32.78;18.92;;;;;;;10.58;83.25;100458.47;3350051;86;99015;-88
2022/09/24 02:50:13;;;;;;;33.07;19.77;;;;;;;10.59;83.33;100458.10;3319075;87;31731;-88
2022/09/24 02:55:14;;;;;;;29.63;18.50;;;;;;;10.57;83.35;100457.67;3340352;87;98628;-88
2022/09/24 03:00:16;;;;;;;29.10;16.80;;;;;;;10.38;83.33;100422.66;3326792;87;31660;-88
2022/09/24 03:05:17;;;;;;;26.60;18.13;;;;;;;10.56;83.35;100447.03;3354768;87;99116;-88
2022/09/24 03:10:18;;;;;;;28.30;17.10;;;;;;;10.56;83.36;100450.58;3319894;87;31611;-88
2022/09/24 03:15:19;;;;;;;28.93;17.20;;;;;;;10.56;83.53;100451.16;3344209;86;99231;-88
2022/09/24 03:20:20;;;;;;;28.67;17.40;;;;;;;10.53;83.47;100445.82;3302710;86;31630;-89
2022/09/24 03:25:21;;;;;;;28.63;15.77;;;;;;;10.52;83.58;100442.09;3349355;86;98592;-89
2022/09/24 03:35:42;;;;;;;26.50;15.47;;;;;;;10.51;83.66;100446.79;3323873;87;98776;-88
2022/09/24 03:40:43;;;;;;;23.87;14.67;;;;;;;10.51;83.73;100436.35;3368791;86;31707;-89
2022/09/24 03:45:44;;;;;;;31.57;17.47;;;;;;;10.50;83.75;100433.40;3345674;87;98973;-88
2022/09/24 03:50:46;;;;;;;25.70;14.13;;;;;;;10.48;83.74;100433.77;3357081;86;31719;-88
2022/09/24 03:55:54;;;;;;;27.63;16.20;;;;;;;10.48;83.83;100441.25;3303045;87;99249;-88
2022/09/24 04:00:56;;;;;;;24.43;14.73;;;;;;;10.46;83.95;100433.36;3334830;87;33236;-88
2022/09/24 04:05:57;;;;;;;27.52;16.27;;;;;;;10.45;83.93;100433.16;3340779;86;98785;-88
2022/09/24 04:10:58;;;;;;;26.80;15.87;;;;;;;10.43;84.07;100426.45;3329869;87;31632;-88
2022/09/24 04:16:03;;;;;;;24.87;14.80;;;;;;;10.41;84.21;100424.67;3341723;87;98625;-88
2022/09/24 04:21:05;;;;;;;33.58;14.87;;;;;;;10.39;84.17;100419.53;3349782;86;34196;-89
2022/09/24 04:26:06;;;;;;;25.35;14.07;;;;;;;10.36;84.29;100420.88;3348161;86;98778;-88
2022/09/24 04:31:08;;;;;;;23.83;15.03;;;;;;;10.33;84.42;100411.41;3337040;87;98926;-83
2022/09/24 04:36:09;;;;;;;24.53;15.10;;;;;;;10.31;84.57;100412.34;3420722;85;31687;-87
2022/09/24 04:41:11;;;;;;;26.20;15.80;;;;;;;10.29;84.73;100411.94;3436342;83;99311;-87
2022/09/24 04:46:13;;;;;;;25.02;15.78;;;;;;;10.25;84.84;100412.48;3434081;83;31314;-88
2022/09/24 04:51:14;;;;;;;28.27;17.37;;;;;;;10.22;84.88;100412.44;3427810;83;99301;-88
2022/09/24 04:56:16;;;;;;;29.42;17.35;;;;;;;10.20;85.03;100416.16;3434043;83;31810;-88
2022/09/24 05:01:19;;;;;;;29.48;16.62;;;;;;;10.17;85.14;100418.27;3419705;85;99140;-88
2022/09/24 05:06:20;;;;;;;27.47;16.80;;;;;;;10.13;85.19;100416.05;3439158;83;31963;-88
2022/09/24 05:11:21;;;;;;;28.10;15.80;;;;;;;10.09;85.23;100411.11;3422135;83;98685;-88
2022/09/24 05:16:22;;;;;;;27.13;16.03;;;;;;;10.07;85.33;100407.92;3399993;83;31741;-88
2022/09/24 05:21:23;;;;;;;30.07;17.47;;;;;;;10.05;85.53;100402.82;3411423;84;98780;-88
2022/09/24 05:31:43;;;;;;;25.52;16.35;;;;;;;10.01;85.78;100398.39;3421122;84;99056;-88
2022/09/24 05:36:44;;;;;;;25.73;16.97;;;;;;;10.03;85.82;100405.10;3436182;83;32363;-89
2022/09/24 05:41:45;;;;;;;29.73;18.07;;;;;;;10.00;85.99;100399.56;3425105;84;98684;-89
2022/09/24 05:46:48;;;;;;;25.27;16.60;;;;;;;10.02;86.15;100402.15;3421755;84;31639;-88
2022/09/24 05:51:50;;;;;;;27.60;16.50;;;;;;;10.01;86.28;100403.32;3422498;84;98663;-87
2022/09/24 05:56:51;;;;;;;30.02;18.42;;;;;;;10.02;86.41;100402.15;3416225;83;32812;-87
2022/09/24 06:01:53;;;;;;;35.50;19.90;;;;;;;10.05;86.66;100406.14;3404455;83;98842;-87
2022/09/24 06:06:55;;;;;;;29.75;19.02;;;;;;;10.07;86.82;100403.23;3402186;85;31393;-86
2022/09/24 06:11:55;;;;;;;33.42;20.27;;;;;;;10.12;86.91;100406.22;3394878;85;99052;-87
2022/09/24 06:16:56;;;;;;;29.33;17.90;;;;;;;10.19;87.02;100406.33;3406130;85;31666;-87
2022/09/24 06:21:57;;;;;;;26.43;17.33;;;;;;;10.24;87.17;100410.13;3397179;85;99246;-86
2022/09/24 06:26:58;;;;;;;25.83;15.10;;;;;;;10.28;87.28;100411.74;3405391;85;31658;-86
2022/09/24 06:32:00;;;;;;;29.60;17.23;;;;;;;10.34;87.47;100414.94;3403069;85;99314;-87
2022/09/24 06:37:01;;;;;;;26.60;16.53;;;;;;;10.42;87.40;100409.73;3435053;83;31637;-85
2022/09/24 06:42:03;;;;;;;30.63;17.07;;;;;;;10.48;87.75;100412.36;3450775;84;99310;-88
2022/09/24 06:47:04;;;;;;;26.00;15.70;;;;;;;10.59;87.75;100410.52;3321153;87;31664;-88
2022/09/24 06:52:05;;;;;;;29.35;16.30;;;;;;;10.74;87.90;100404.77;3343058;86;99709;-88
2022/09/24 06:57:06;;;;;;;24.87;15.53;;;;;;;10.93;87.88;100407.89;3356431;85;31808;-89
2022/09/24 07:02:09;;;;;;;23.83;14.37;;;;;;;11.09;87.69;100415.32;3326989;86;99388;-89
2022/09/24 07:07:28;;;;;;;22.43;14.23;;;;;;;11.21;86.92;100417.20;3355078;86;31712;-89
2022/09/24 07:12:31;;;;;;;23.83;14.85;;;;;;;11.40;86.76;100412.04;3342714;85;99120;-89
2022/09/24 07:17:32;;;;;;;22.32;14.35;;;;;;;11.59;86.11;100415.36;3356202;86;33188;-89
2022/09/24 07:22:39;;;;;;;22.70;14.63;;;;;;;11.76;85.73;100420.77;3337444;86;99112;-89
2022/09/24 07:27:40;;;;;;;22.60;14.18;;;;;;;11.98;85.02;100430.16;3368297;86;33228;-89
2022/09/24 07:32:41;;;;;;;22.33;12.77;;;;;;;12.20;84.87;100433.80;3336824;87;99050;-89
2022/09/24 07:37:42;;;;;;;18.87;12.83;;;;;;;12.45;84.44;100421.70;3367500;86;31697;-89
2022/09/24 07:42:47;;;;;;;20.50;12.93;;;;;;;12.71;83.52;100426.11;3311059;87;99394;-88
2022/09/24 07:48:00;;;;;;;18.55;12.07;;;;;;;12.91;83.10;100428.13;3315787;87;33008;-88
2022/09/24 07:53:02;;;;;;;21.00;13.20;;;;;;;13.13;82.41;100421.47;3330447;87;98957;-89
2022/09/24 07:58:02;;;;;;;21.23;12.20;;;;;;;13.38;82.40;100429.18;3333264;87;26115;-89
2022/09/24 08:03:04;;;;;;;26.30;13.80;;;;;;;13.65;82.23;100440.02;3317098;87;98949;-89
2022/09/24 08:08:05;;;;;;;19.53;12.33;;;;;;;13.87;81.37;100438.00;3290282;87;28900;-89
2022/09/24 08:13:06;;;;;;;18.87;12.43;;;;;;;14.19;81.54;100437.31;3298777;86;98931;-89
2022/09/24 08:18:07;;;;;;;20.73;12.43;;;;;;;14.56;80.80;100448.06;3333276;87;31647;-88
2022/09/24 08:23:09;;;;;;;21.83;12.00;;;;;;;14.92;79.95;100438.37;3324784;86;99149;-88
2022/09/24 08:28:11;;;;;;;17.17;11.27;;;;;;;15.19;78.87;100439.95;3316163;87;32407;-88
2022/09/24 08:33:12;;;;;;;20.13;12.43;;;;;;;15.51;78.23;100435.78;3323662;87;99614;-88
2022/09/24 08:38:14;;;;;;;19.27;11.57;;;;;;;15.94;76.90;100437.53;3338627;87;32178;-87
2022/09/24 08:43:46;;;;;;;16.10;9.93;;;;;;;16.28;75.91;100438.33;3335908;85;99470;-88
2022/09/24 08:48:51;;;;;;;15.48;8.80;;;;;;;16.54;73.80;100439.03;3352474;85;33285;-88
2022/09/24 08:54:12;;;;;;;18.87;9.40;;;;;;;16.70;72.39;100435.05;3346961;85;98984;-89
2022/09/24 08:59:29;;;;;;;17.65;9.93;;;;;;;16.95;71.06;100438.28;3350307;86;33249;-88
2022/09/24 09:04:58;;;;;;;17.15;9.73;;;;;;;17.17;70.99;100435.36;3353385;85;98901;-88
2022/09/24 09:10:10;;;;;;;15.10;8.78;;;;;;;17.47;70.00;100438.06;3351840;86;33847;-88
2022/09/24 09:15:24;;;;;;;15.40;9.05;;;;;;;17.73;69.21;100434.44;3343523;86;98541;-88
2022/09/24 09:20:37;;;;;;;13.58;8.30;;;;;;;17.91;68.23;100424.55;3344189;86;33909;-88
2022/09/24 09:25:43;;;;;;;14.05;8.78;;;;;;;18.27;67.76;100432.41;3334157;86;98920;-87
2022/09/24 09:31:17;;;;;;;15.45;9.55;;;;;;;18.63;66.72;100437.44;3353338;86;26210;-87
2022/09/24 09:36:42;;;;;;;14.50;8.33;;;;;;;18.74;65.61;100440.02;3335198;86;33780;-88
2022/09/24 09:42:18;;;;;;;13.90;8.25;;;;;;;18.98;66.19;100428.91;3340287;86;98833;-88
2022/09/24 09:47:42;;;;;;;15.40;8.00;;;;;;;19.26;64.94;100438.83;3340118;86;34868;-88
2022/09/24 09:52:43;;;;;;;12.65;7.17;;;;;;;19.53;63.39;100432.97;3337754;86;98787;-87
2022/09/24 09:57:44;;;;;;;9.87;5.80;;;;;;;19.89;62.64;100437.19;3343397;86;31091;-88
2022/09/24 10:02:52;;;;;;;11.80;6.83;;;;;;;20.14;61.24;100423.37;3348244;86;98779;-88
2022/09/24 10:07:52;;;;;;;11.10;6.33;;;;;;;20.53;61.47;100427.83;3366926;85;33292;-87
2022/09/24 10:13:09;;;;;;;11.77;6.40;;;;;;;20.85;60.75;100424.86;3346289;86;99138;-88
2022/09/24 10:18:13;;;;;;;10.25;5.20;;;;;;;21.14;59.37;100425.59;3342630;86;33364;-87
2022/09/24 10:23:29;;;;;;;9.38;4.85;;;;;;;21.48;58.26;100419.42;3340566;85;98737;-87
2022/09/24 10:33:55;;;;;;;10.30;6.30;;;;;;;21.98;55.63;100412.33;3340989;85;98581;-88
2022/09/24 10:39:13;;;;;;;12.63;6.10;;;;;;;22.47;55.89;100409.75;3347501;86;33783;-88
2022/09/24 10:44:16;;;;;;;7.25;4.40;;;;;;;22.72;54.09;100403.98;3341722;85;98969;-88
2022/09/24 10:49:26;;;;;;;6.28;3.37;;;;;;;23.11;53.11;100405.38;3346852;85;33302;-87
2022/09/24 10:54:41;;;;;;;6.25;2.85;;;;;;;23.13;51.32;100407.13;3351465;86;98439;-88
2022/09/24 10:59:54;;;;;;;5.45;2.60;;;;;;;23.31;49.73;100397.38;3350771;86;26404;-89
2022/09/24 11:05:02;;;;;;;7.40;2.95;;;;;;;23.14;48.62;100393.84;3355141;86;98588;-88
2022/09/24 11:10:17;;;;;;;8.28;3.72;;;;;;;23.13;47.99;100396.50;3335009;86;33898;-88
2022/09/24 11:15:52;;;;;;;6.50;3.00;;;;;;;23.04;47.63;100392.28;3342206;85;98749;-89
2022/09/24 11:21:08;;;;;;;16.90;4.20;;;;;;;23.17;48.40;100390.92;3329407;86;26259;-88
2022/09/24 11:26:36;;;;;;;8.15;2.95;;;;;;;22.78;47.64;100385.30;3330097;86;25856;-87
2022/09/24 11:31:58;;;;;;;6.25;3.05;;;;;;;22.50;47.81;100388.57;3348598;84;98990;-86
2022/09/24 11:37:26;;;;;;;9.05;2.77;;;;;;;22.52;47.60;100385.31;3348603;86;33223;-87
2022/09/24 11:42:52;;;;;;;6.53;2.30;;;;;;;22.43;46.97;100381.02;3347371;86;98593;-85
2022/09/24 11:48:13;;;;;;;5.05;2.40;;;;;;;22.24;47.03;100382.92;3341473;86;33359;-87
2022/09/24 11:53:32;;;;;;;6.22;2.80;;;;;;;22.15;47.39;100384.88;3344355;86;99064;-85
2022/09/24 11:58:59;;;;;;;8.55;2.92;;;;;;;22.15;46.42;100384.27;3331291;86;34276;-86
2022/09/24 12:04:10;;;;;;;7.83;3.40;;;;;;;22.00;45.88;100383.83;3335233;87;98758;-85
2022/09/24 12:09:49;;;;;;;5.42;2.83;;;;;;;21.89;46.60;100384.22;3337722;87;33378;-86
2022/09/24 12:15:02;;;;;;;5.92;2.95;;;;;;;21.89;46.45;100380.02;3335839;86;98504;-87
2022/09/24 12:20:27;;;;;;;8.30;3.72;;;;;;;21.85;46.54;100372.98;3339216;87;33407;-87
2022/09/24 12:25:33;;;;;;;5.70;3.00;;;;;;;21.82;45.77;100371.08;3340609;86;98670;-87
2022/09/24 12:36:23;;;;;;;6.33;3.00;;;;;;;21.80;46.12;100376.36;3331510;86;98279;-88
2022/09/24 12:41:31;;;;;;;5.83;3.00;;;;;;;21.83;47.21;100376.84;3373248;84;99056;-88
2022/09/24 12:46:56;;;;;;;5.97;2.22;;;;;;;21.62;46.63;100376.95;3473186;82;33806;-88
2022/09/24 12:52:05;;;;;;;6.33;2.87;;;;;;;21.59;48.04;100371.47;3461986;84;98984;-87
2022/09/24 12:57:25;;;;;;;7.87;2.72;;;;;;;21.32;47.26;100362.80;3475438;83;34405;-88
2022/09/24 13:02:43;;;;;;;4.22;2.52;;;;;;;20.90;47.53;100358.59;3469028;83;98799;-88
2022/09/24 13:08:14;;;;;;;5.47;2.40;;;;;;;20.78;48.77;100353.76;3483297;82;33266;-87
2022/09/24 13:13:29;;;;;;;7.90;3.95;;;;;;;20.79;50.09;100341.33;3468939;83;98785;-88
2022/09/24 13:18:34;;;;;;;6.95;3.40;;;;;;;20.59;48.49;100345.75;3480332;83;26665;-87
2022/09/24 13:23:46;;;;;;;7.25;3.17;;;;;;;20.39;47.73;100340.97;3463211;83;98645;-87
2022/09/24 13:28:57;;;;;;;5.75;2.72;;;;;;;20.27;49.31;100350.75;3459551;84;33741;-88
2022/09/24 13:34:19;;;;;;;6.22;2.98;;;;;;;20.22;49.45;100347.11;3461831;83;98721;-87
2022/09/24 13:39:45;;;;;;;7.53;3.47;;;;;;;20.12;49.32;100341.98;3459919;84;34528;-88
2022/09/24 13:44:56;;;;;;;6.25;3.45;;;;;;;20.08;49.19;100340.52;3422061;83;98721;-87
2022/09/24 13:50:14;;;;;;;6.35;2.95;;;;;;;20.05;49.48;100335.80;3433492;83;33379;-87
2022/09/24 13:55:32;;;;;;;4.75;2.30;;;;;;;20.07;50.69;100327.18;3434744;84;98704;-87
2022/09/24 14:00:36;;;;;;;6.00;2.30;;;;;;;20.08;51.17;100325.16;3440824;84;34214;-87
2022/09/24 14:05:37;;;;;;;4.65;2.35;;;;;;;20.03;50.93;100322.27;3424946;85;98609;-87
2022/09/24 14:10:39;;;;;;;5.47;2.57;;;;;;;19.94;50.51;100315.14;3445059;83;31385;-87
2022/09/24 14:15:59;;;;;;;3.97;2.30;;;;;;;19.89;50.60;100317.71;3434101;83;98286;-87
2022/09/24 14:21:09;;;;;;;6.45;2.70;;;;;;;19.81;51.51;100317.12;3365871;84;33177;-87
2022/09/24 14:26:27;;;;;;;6.78;2.90;;;;;;;19.78;52.65;100303.27;3432352;85;33547;-87
2022/09/24 14:31:29;;;;;;;6.47;3.00;;;;;;;19.77;52.72;100318.43;3431387;85;98730;-87
2022/09/24 14:36:30;;;;;;;6.47;2.80;;;;;;;19.68;52.24;100315.52;3438643;84;33869;-88
2022/09/24 14:41:34;;;;;;;6.50;2.60;;;;;;;19.65;53.22;100315.78;3404592;83;98962;-87
2022/09/24 14:46:40;;;;;;;8.60;3.22;;;;;;;19.61;53.24;100315.08;3433793;84;33266;-87
2022/09/24 14:52:00;;;;;;;6.12;3.30;;;;;;;19.60;52.45;100314.13;3436879;83;98863;-88
2022/09/24 14:57:22;;;;;;;5.35;2.65;;;;;;;19.61;51.75;100315.08;3412641;85;33659;-87
2022/09/24 15:02:33;;;;;;;5.58;2.67;;;;;;;19.56;51.74;100317.02;3438669;83;98800;-87
2022/09/24 15:07:35;;;;;;;7.95;3.10;;;;;;;19.63;53.10;100309.83;3439022;84;33346;-87
2022/09/24 15:12:38;;;;;;;6.30;2.90;;;;;;;19.50;51.79;100304.82;3427496;84;98721;-86
2022/09/24 15:17:39;;;;;;;6.87;2.80;;;;;;;19.35;52.42;100304.25;3436058;83;33803;-88
2022/09/24 15:22:40;;;;;;;4.57;2.40;;;;;;;19.17;52.09;100306.08;3426171;83;98732;-88
2022/09/24 15:27:42;;;;;;;5.65;2.45;;;;;;;18.93;51.96;100309.48;3435710;83;31851;-88
2022/09/24 15:32:43;;;;;;;6.17;2.30;;;;;;;18.85;53.21;100309.50;3424990;85;98732;-87
2022/09/24 15:37:44;;;;;;;7.17;2.73;;;;;;;18.73;53.91;100312.95;3435587;83;27494;-87
2022/09/24 15:42:45;;;;;;;6.13;2.33;;;;;;;18.55;54.14;100310.61;3415725;84;98861;-87
2022/09/24 15:47:49;;;;;;;8.60;5.13;;;;;;;18.43;54.91;100315.44;3423123;84;28486;-88
2022/09/24 15:53:00;;;;;;;8.83;6.15;;;;;;;18.29;54.92;100310.17;3420107;85;98901;-88
2022/09/24 15:58:01;;;;;;;6.33;3.58;;;;;;;18.07;54.94;100316.62;3420656;85;33383;-87
2022/09/24 16:03:02;;;;;;;6.78;3.20;;;;;;;17.88;56.21;100308.45;3412598;85;98929;-88
2022/09/24 16:08:03;;;;;;;5.77;2.87;;;;;;;17.68;56.22;100306.88;3423570;84;28575;-87
2022/09/24 16:13:04;;;;;;;9.87;3.33;;;;;;;17.43;56.77;100309.38;3414127;84;98654;-87
2022/09/24 16:18:08;;;;;;;8.57;4.00;;;;;;;17.18;58.07;100311.18;3392404;85;27886;-88
2022/09/24 16:23:14;;;;;;;11.30;4.35;;;;;;;16.94;59.09;100306.05;3393273;85;98967;-86
2022/09/24 16:28:15;;;;;;;11.73;4.30;;;;;;;16.69;59.73;100301.48;3428116;84;33769;-87
2022/09/24 16:33:17;;;;;;;9.07;4.43;;;;;;;16.45;60.59;100315.16;3412744;85;98975;-88
2022/09/24 16:38:18;;;;;;;10.60;5.40;;;;;;;16.20;60.78;100324.39;3415840;85;26219;-88
2022/09/24 16:43:19;;;;;;;15.47;7.13;;;;;;;15.95;61.82;100316.97;3447871;83;98777;-89
2022/09/24 16:48:20;;;;;;;21.97;12.20;;;;;;;15.71;62.61;100318.06;3481096;82;32303;-88
2022/09/24 16:53:20;;;;;;;31.07;16.50;;;;;;;15.50;63.46;100314.13;3461837;82;99265;-90
2022/09/24 16:58:22;;;;;;;32.20;16.03;;;;;;;15.31;64.17;100312.70;3443991;84;31640;-88
2022/09/24 17:03:23;;;;;;;25.43;11.13;;;;;;;15.16;64.64;100316.80;3472416;82;99344;-89
2022/09/24 17:10:11;;;;;;;22.47;11.67;;;;;;;15.01;65.29;100315.97;3478455;84;31656;-87
2022/09/24 17:13:27;;;;;;;24.10;12.30;;;;;;;14.88;65.92;100308.75;3461342;82;98885;-88
2022/09/24 17:18:28;;;;;;;27.70;10.57;;;;;;;14.76;66.47;100320.33;3464994;84;31634;-89
2022/09/24 17:23:29;;;;;;;18.80;9.47;;;;;;;14.65;67.03;100318.23;3435915;83;99278;-88
2022/09/24 17:28:35;;;;;;;19.17;8.83;;;;;;;14.56;67.56;100321.27;3471210;84;31627;-88
2022/09/24 17:33:38;;;;;;;;;;;;;;;14.44;68.07;100319.75;3487090;82;98937;-88
2022/09/24 17:38:39;;;;;;;17.85;8.70;;;;;;;14.34;69.63;100317.83;3464117;82;33497;-88
2022/09/24 17:43:41;;;;;;;17.10;9.03;;;;;;;14.28;68.83;100324.99;3423040;84;98905;-88
2022/09/24 17:48:45;;;;;;;18.02;10.43;;;;;;;14.22;69.25;100322.45;3416358;83;33051;-88
2022/09/24 17:53:46;;;;;;;21.27;9.73;;;;;;;14.14;69.71;100322.28;3405744;85;99074;-88
2022/09/24 17:58:47;;;;;;;17.80;10.13;;;;;;;14.10;70.07;100327.63;3411423;84;27856;-88
2022/09/24 18:03:59;;;;;;;26.70;12.87;;;;;;;14.02;70.18;100328.86;3408930;85;99166;-88
2022/09/24 18:09:01;;;;;;;33.65;18.23;;;;;;;13.96;70.68;100331.86;3415858;85;33303;-89
2022/09/24 18:14:02;;;;;;;37.63;18.85;;;;;;;13.89;70.97;100337.42;3411920;84;99367;-89
2022/09/24 18:19:03;;;;;;;42.83;20.77;;;;;;;13.83;71.33;100343.15;3414774;84;26604;-88
2022/09/24 18:24:04;;;;;;;31.60;16.87;;;;;;;13.77;71.57;100342.80;3415220;83;99224;-89
2022/09/24 18:29:14;;;;;;;33.50;17.73;;;;;;;13.73;72.00;100347.53;3406848;84;26385;-89
2022/09/24 18:34:16;;;;;;;32.40;18.23;;;;;;;13.68;72.30;100338.87;3408340;85;99022;-88
2022/09/24 18:39:17;;;;;;;30.40;15.58;;;;;;;13.62;72.61;100337.09;3422555;84;33211;-89
2022/09/24 18:44:18;;;;;;;29.73;15.93;;;;;;;13.59;72.90;100339.30;3464090;83;99261;-89
2022/09/24 18:49:19;;;;;;;25.97;15.60;;;;;;;13.55;73.15;100348.19;3474019;82;32307;-89
2022/09/24 18:54:20;;;;;;;27.17;14.93;;;;;;;13.53;73.58;100349.77;3468054;83;98917;-88
2022/09/24 18:59:22;;;;;;;25.43;15.43;;;;;;;13.48;73.64;100357.09;3489877;82;32372;-89
2022/09/24 19:04:24;;;;;;;27.77;15.63;;;;;;;13.44;73.98;100353.53;3462845;83;99144;-89
2022/09/24 19:09:25;;;;;;;29.33;16.33;;;;;;;13.39;74.40;100352.55;3493891;82;32251;-89
2022/09/24 19:14:26;;;;;;;30.50;17.07;;;;;;;13.36;74.64;100355.52;3466782;83;99087;-90
2022/09/24 19:19:27;;;;;;;28.23;16.87;;;;;;;13.32;74.95;100353.38;3482058;82;31668;-89
2022/09/24 19:24:29;;;;;;;30.27;18.27;;;;;;;13.27;75.30;100352.39;3467758;83;98886;-90
2022/09/24 19:29:30;;;;;;;30.87;18.27;;;;;;;13.22;75.49;100353.36;3477345;82;31670;-89
2022/09/24 19:34:31;;;;;;;31.10;19.80;;;;;;;13.18;75.66;100352.56;3442148;83;98949;-90
2022/09/24 19:39:32;;;;;;;27.83;17.47;;;;;;;13.12;76.20;100352.19;3482500;83;31622;-90
2022/09/24 19:44:33;;;;;;;29.37;18.60;;;;;;;13.12;76.20;100352.19;3460112;83;99327;-90
2022/09/24 19:49:34;;;;;;;30.07;18.43;;;;;;;13.10;76.39;100356.53;3467616;82;31629;-90
2022/09/24 19:54:36;;;;;;;27.53;17.90;;;;;;;13.06;76.44;100352.39;3472176;83;99036;-89
2022/09/24 19:59:37;;;;;;;28.83;18.47;;;;;;;13.04;76.81;100345.69;3487724;82;31726;-90
2022/09/24 20:04:40;;;;;;;29.63;18.03;;;;;;;13.02;77.08;100352.98;3465182;83;98919;-89
2022/09/24 20:09:41;;;;;;;30.80;18.80;;;;;;;12.99;77.01;100351.02;3459153;84;31647;-89
2022/09/24 20:14:42;;;;;;;30.60;18.90;;;;;;;12.98;77.17;100349.42;3445730;84;99006;-89
2022/09/24 20:19:43;;;;;;;34.60;22.40;;;;;;;12.96;77.52;100352.37;3470081;84;31689;-89
2022/09/24 20:24:44;;;;;;;39.70;24.73;;;;;;;12.94;77.66;100354.14;3463107;83;99045;-89
2022/09/24 20:29:47;;;;;;;35.90;23.80;;;;;;;12.93;77.72;100352.55;3470837;83;31543;-89
2022/09/24 20:34:47;;;;;;;39.65;23.47;;;;;;;12.91;77.91;100351.39;3449498;82;98855;-89
2022/09/24 20:39:48;;;;;;;32.37;21.70;;;;;;;12.90;78.13;100352.55;3474425;83;32081;-89
2022/09/24 20:44:49;;;;;;;34.07;22.73;;;;;;;12.90;77.76;100351.97;3433155;84;98763;-89
2022/09/24 20:49:50;;;;;;;33.30;21.93;;;;;;;12.89;78.17;100350.97;3470365;83;32191;-89
2022/09/24 20:54:51;;;;;;;31.47;20.20;;;;;;;12.87;78.20;100349.98;3418070;84;98705;-89
2022/09/24 20:59:53;;;;;;;29.37;19.80;;;;;;;12.86;78.25;100349.02;3443417;84;31689;-89
2022/09/24 21:04:54;;;;;;;27.43;18.77;;;;;;;12.83;78.67;100351.17;3441471;84;98777;-89
2022/09/24 21:09:55;;;;;;;25.33;16.87;;;;;;;12.82;78.91;100355.13;3444161;84;31602;-90
2022/09/24 21:14:58;;;;;;;25.03;15.97;;;;;;;12.79;78.97;100356.69;3443891;83;98853;-89
2022/09/24 21:20:00;;;;;;;25.93;17.27;;;;;;;12.77;79.12;100355.51;3454142;84;31673;-90
2022/09/24 21:25:01;;;;;;;32.07;18.63;;;;;;;12.73;79.06;100348.61;3321251;86;98998;-89
2022/09/24 21:30:03;;;;;;;29.90;21.17;;;;;;;12.71;79.41;100351.56;3357100;86;31649;-89
2022/09/24 21:35:06;;;;;;;33.13;21.47;;;;;;;12.66;79.61;100345.84;3349046;87;99053;-89
2022/09/24 21:40:09;;;;;;;34.25;23.07;;;;;;;12.63;79.74;100343.85;3361378;86;33291;-90
2022/09/24 21:45:12;;;;;;;31.93;21.17;;;;;;;12.46;79.88;100325.88;3334995;87;99188;-89
2022/09/24 21:50:13;;;;;;;31.37;18.60;;;;;;;12.46;79.88;100325.88;3337791;87;33301;-89
2022/09/24 21:55:15;;;;;;;27.52;19.07;;;;;;;12.43;79.86;100319.77;3332100;87;98997;-89
2022/09/24 22:00:16;;;;;;;27.53;17.00;;;;;;;12.53;79.91;100343.23;3341266;87;32437;-89
2022/09/24 22:05:17;;;;;;;26.87;17.00;;;;;;;12.51;80.21;100337.33;3340273;87;98720;-90
2022/09/24 22:10:18;;;;;;;20.50;13.13;;;;;;;12.52;80.17;100335.34;3343682;87;31605;-90
2022/09/24 22:15:21;;;;;;;23.03;12.67;;;;;;;12.51;80.34;100337.33;3344657;87;98719;-90
2022/09/24 22:20:22;;;;;;;18.85;12.43;;;;;;;12.52;80.45;100343.62;3335396;87;33307;-89
2022/09/24 22:25:23;;;;;;;21.23;12.70;;;;;;;12.49;80.54;100339.67;3338190;87;98932;-89
2022/09/24 22:30:24;;;;;;;19.87;12.65;;;;;;;12.48;80.64;100331.81;3335242;87;31589;-89
2022/09/24 22:40:44;;;;;;;23.57;15.45;;;;;;;12.45;80.90;100332.58;3352111;87;33321;-90
2022/09/24 22:45:45;;;;;;;20.97;12.00;;;;;;;12.31;80.96;100314.02;3348320;86;98983;-90
2022/09/24 22:50:46;;;;;;;23.83;14.40;;;;;;;12.44;81.04;100333.77;3350908;86;31650;-90
2022/09/24 22:55:48;;;;;;;26.60;17.67;;;;;;;12.40;81.23;100328.24;3332094;87;98937;-90
2022/09/24 23:00:49;;;;;;;21.77;13.93;;;;;;;12.40;81.24;100330.20;3345274;87;31227;-90
2022/09/24 23:05:49;;;;;;;24.07;15.03;;;;;;;12.35;81.47;100321.72;3329909;87;99241;-91
2022/09/24 23:10:50;;;;;;;24.67;15.90;;;;;;;12.33;81.54;100323.30;3316178;87;31640;-90
2022/09/24 23:15:51;;;;;;;21.37;14.98;;;;;;;12.28;81.58;100324.48;3346191;87;98903;-90
2022/09/24 23:20:52;;;;;;;24.10;14.85;;;;;;;12.21;81.74;100330.56;3346159;87;32178;-90
2022/09/24 23:26:02;;;;;;;21.23;14.97;;;;;;;12.13;81.77;100333.89;3331242;87;98850;-89
2022/09/24 23:31:05;;;;;;;25.08;14.87;;;;;;;12.06;82.06;100341.34;3335463;86;33258;-89
2022/09/24 23:36:09;;;;;;;33.65;22.42;;;;;;;11.99;82.35;100335.20;3346141;86;98548;-89
2022/09/24 23:41:12;;;;;;;25.52;16.82;;;;;;;11.92;82.55;100326.11;3340942;86;98802;-88
2022/09/24 23:46:13;;;;;;;29.92;17.37;;;;;;;11.82;82.63;100326.88;3331294;86;33232;-89